Weather at Hig Heliport

Public forecast

Using degrees Fahrenheit for public forecast. Weather courtesy of forecast.io.

Closest aviation weather report (METAR) to Hig Heliport

Closest report is Addison Airport, 5.0 nm (9.2 km) ESE.

2024/05/28 13:50 (retrieved 42 minutes ago)

KADS 281350Z 02019G28KT 6SM +TSRA SCT025 BKN050 OVC070 18/17 A3017 RMK LTG OVHD AND DSNT ALQDS

Closest aviation forecast (TAF) to Hig Heliport

Closest forecast is Dallas Fort Worth International Airport, 8.1 nm (15.0 km) SW.

2024/05/28 13:04 Ammendment (retrieved 1 hour ago)

TAF AMD KDFW 281302Z 2813/2918 01015G30KT 5SM TSRA BR SCT025 OVC060CB TEMPO 2813/2815 01030G40KT 1SM +TSRA BKN025CB FM281500 11008KT P6SM -SHRA VCTS BKN025CB TEMPO 2815/2818 5SM -TSRA BR OVC015CB FM281800 12009KT P6SM VCSH BKN045 FM290200 09009KT P6SM VCTS OVC060CB FM290800 11007KT 6SM BR VCSH BKN020